Terminal Aerodrome Forecast
Issued by NWS Mt. Holly, NJ

Home | Current Version | Previous Version | Text Only | Print | Product List | Glossary On
Versions: 1 2 3 4 5 6 7 8 9 10 11 12 13 14 15 16 17 18 19 20 21 22 23 24 25 26 27
000
FTUS41 KPHI 281124
TAFABE
TAF
KABE 281124Z 2812/2912 33010G18KT P6SM BKN040
     FM281400 32015G25KT P6SM BKN050
     FM290300 33012G22KT P6SM SCT050 BKN100
     FM290600 33010G18KT P6SM SCT100=

USA.gov is the U.S. government's official web portal to all federal, state and local government web resources and services.